sensor_id;sensor_type;location;lat;lon;timestamp;pressure;altitude;pressure_sealevel;temperature;humidity
42105;BME280;61464;51.472;5.712;2023-01-25T00:01:17;103460.31;;;0.09;100.00
42105;BME280;61464;51.472;5.712;2023-01-25T00:03:43;103449.25;;;0.09;100.00
42105;BME280;61464;51.472;5.712;2023-01-25T00:06:09;103448.28;;;0.16;100.00
42105;BME280;61464;51.472;5.712;2023-01-25T00:08:35;103442.56;;;0.02;100.00
42105;BME280;61464;51.472;5.712;2023-01-25T00:11:01;103449.34;;;0.04;100.00
42105;BME280;61464;51.472;5.712;2023-01-25T00:13:26;103441.72;;;0.01;100.00
42105;BME280;61464;51.472;5.712;2023-01-25T00:15:52;103445.88;;;0.08;100.00
42105;BME280;61464;51.472;5.712;2023-01-25T00:18:18;103443.38;;;0.04;100.00
42105;BME280;61464;51.472;5.712;2023-01-25T00:20:44;103453.56;;;0.07;100.00
42105;BME280;61464;51.472;5.712;2023-01-25T00:23:09;103439.97;;;0.03;100.00
42105;BME280;61464;51.472;5.712;2023-01-25T00:25:35;103442.53;;;0.05;100.00
42105;BME280;61464;51.472;5.712;2023-01-25T00:28:01;103446.75;;;0.06;100.00
42105;BME280;61464;51.472;5.712;2023-01-25T00:30:27;103442.56;;;0.02;100.00
42105;BME280;61464;51.472;5.712;2023-01-25T00:35:43;103437.44;;;0.03;100.00
42105;BME280;61464;51.472;5.712;2023-01-25T00:38:33;103430.59;;;0.05;100.00
42105;BME280;61464;51.472;5.712;2023-01-25T00:40:59;103436.59;;;0.03;100.00
42105;BME280;61464;51.472;5.712;2023-01-25T00:43:25;103438.31;;;0.02;100.00
42105;BME280;61464;51.472;5.712;2023-01-25T00:45:51;103428.16;;;-0.03;100.00
42105;BME280;61464;51.472;5.712;2023-01-25T00:48:17;103434.94;;;-0.02;100.00
42105;BME280;61464;51.472;5.712;2023-01-25T00:50:43;103432.44;;;-0.05;100.00
42105;BME280;61464;51.472;5.712;2023-01-25T00:53:08;103429.94;;;-0.06;100.00
42105;BME280;61464;51.472;5.712;2023-01-25T00:55:34;103440.13;;;-0.06;100.00
42105;BME280;61464;51.472;5.712;2023-01-25T00:58:00;103432.47;;;-0.06;100.00
42105;BME280;61464;51.472;5.712;2023-01-25T01:00:26;103427.50;;;-0.17;100.00
42105;BME280;61464;51.472;5.712;2023-01-25T01:02:51;103431.72;;;-0.13;100.00
42105;BME280;61464;51.472;5.712;2023-01-25T01:05:17;103435.13;;;-0.14;100.00
42105;BME280;61464;51.472;5.712;2023-01-25T01:07:43;103424.94;;;-0.15;100.00
42105;BME280;61464;51.472;5.712;2023-01-25T01:10:09;103428.31;;;-0.13;100.00
42105;BME280;61464;51.472;5.712;2023-01-25T01:12:35;103426.66;;;-0.16;100.00
42105;BME280;61464;51.472;5.712;2023-01-25T01:15:01;103426.69;;;-0.19;100.00
42105;BME280;61464;51.472;5.712;2023-01-25T01:17:27;103416.44;;;-0.16;100.00
42105;BME280;61464;51.472;5.712;2023-01-25T01:19:53;103418.13;;;-0.15;100.00
42105;BME280;61464;51.472;5.712;2023-01-25T01:22:18;103424.03;;;-0.11;100.00
42105;BME280;61464;51.472;5.712;2023-01-25T01:24:47;103418.16;;;-0.16;100.00
42105;BME280;61464;51.472;5.712;2023-01-25T01:27:13;103412.16;;;-0.14;100.00
42105;BME280;61464;51.472;5.712;2023-01-25T01:29:39;103420.63;;;-0.10;100.00
42105;BME280;61464;51.472;5.712;2023-01-25T01:32:05;103413.09;;;-0.19;100.00
42105;BME280;61464;51.472;5.712;2023-01-25T01:34:31;103424.22;;;-0.24;100.00
42105;BME280;61464;51.472;5.712;2023-01-25T01:36:56;103419.09;;;-0.22;100.00
42105;BME280;61464;51.472;5.712;2023-01-25T01:39:22;103416.44;;;-0.14;100.00
42105;BME280;61464;51.472;5.712;2023-01-25T01:41:48;103419.72;;;-0.08;100.00
42105;BME280;61464;51.472;5.712;2023-01-25T01:44:18;103420.56;;;-0.07;100.00
42105;BME280;61464;51.472;5.712;2023-01-25T01:46:51;103419.75;;;-0.11;100.00
42105;BME280;61464;51.472;5.712;2023-01-25T01:49:28;103425.69;;;-0.09;100.00
42105;BME280;61464;51.472;5.712;2023-01-25T01:52:04;103426.50;;;-0.07;100.00
42105;BME280;61464;51.472;5.712;2023-01-25T01:55:00;103426.75;;;-0.22;100.00
42105;BME280;61464;51.472;5.712;2023-01-25T01:57:49;103424.19;;;-0.22;100.00
42105;BME280;61464;51.472;5.712;2023-01-25T02:00:24;103416.66;;;-0.30;100.00
42105;BME280;61464;51.472;5.712;2023-01-25T02:02:51;103426.06;;;-0.33;100.00
42105;BME280;61464;51.472;5.712;2023-01-25T02:07:54;103416.72;;;-0.33;100.00
42105;BME280;61464;51.472;5.712;2023-01-25T02:10:21;103415.81;;;-0.32;100.00
42105;BME280;61464;51.472;5.712;2023-01-25T02:12:48;103417.47;;;-0.29;100.00
42105;BME280;61464;51.472;5.712;2023-01-25T02:15:16;103421.66;;;-0.24;100.00
42105;BME280;61464;51.472;5.712;2023-01-25T02:17:41;103424.03;;;-0.13;100.00
42105;BME280;61464;51.472;5.712;2023-01-25T02:20:49;103415.66;;;-0.19;100.00
42105;BME280;61464;51.472;5.712;2023-01-25T02:25:55;103410.72;;;-0.30;100.00
42105;BME280;61464;51.472;5.712;2023-01-25T02:28:29;103403.06;;;-0.32;100.00
42105;BME280;61464;51.472;5.712;2023-01-25T02:30:56;103398.88;;;-0.37;100.00
42105;BME280;61464;51.472;5.712;2023-01-25T02:33:23;103403.06;;;-0.30;100.00
42105;BME280;61464;51.472;5.712;2023-01-25T02:38:23;103402.97;;;-0.24;100.00
42105;BME280;61464;51.472;5.712;2023-01-25T02:41:03;103396.06;;;-0.19;100.00
42105;BME280;61464;51.472;5.712;2023-01-25T02:43:32;103389.31;;;-0.23;100.00
42105;BME280;61464;51.472;5.712;2023-01-25T02:46:38;103384.28;;;-0.26;100.00
42105;BME280;61464;51.472;5.712;2023-01-25T02:49:07;103390.13;;;-0.19;100.00
42105;BME280;61464;51.472;5.712;2023-01-25T02:51:38;103395.19;;;-0.16;100.00
42105;BME280;61464;51.472;5.712;2023-01-25T02:54:06;103385.09;;;-0.26;100.00
42105;BME280;61464;51.472;5.712;2023-01-25T02:56:33;103380.09;;;-0.33;100.00
42105;BME280;61464;51.472;5.712;2023-01-25T02:58:59;103385.22;;;-0.33;100.00
42105;BME280;61464;51.472;5.712;2023-01-25T03:01:32;103388.69;;;-0.37;100.00
42105;BME280;61464;51.472;5.712;2023-01-25T03:03:58;103376.81;;;-0.40;100.00
42105;BME280;61464;51.472;5.712;2023-01-25T03:06:23;103387.75;;;-0.33;100.00
42105;BME280;61464;51.472;5.712;2023-01-25T03:08:49;103382.56;;;-0.27;100.00
42105;BME280;61464;51.472;5.712;2023-01-25T03:11:15;103377.44;;;-0.26;100.00
42105;BME280;61464;51.472;5.712;2023-01-25T03:13:41;103381.69;;;-0.25;100.00
42105;BME280;61464;51.472;5.712;2023-01-25T03:16:10;103368.97;;;-0.28;100.00
42105;BME280;61464;51.472;5.712;2023-01-25T03:18:38;103376.56;;;-0.23;100.00
42105;BME280;61464;51.472;5.712;2023-01-25T03:21:13;103363.78;;;-0.23;100.00
42105;BME280;61464;51.472;5.712;2023-01-25T03:23:40;103362.13;;;-0.24;100.00
42105;BME280;61464;51.472;5.712;2023-01-25T03:26:16;103365.59;;;-0.28;100.00
42105;BME280;61464;51.472;5.712;2023-01-25T03:28:43;103358.81;;;-0.31;100.00
42105;BME280;61464;51.472;5.712;2023-01-25T03:31:11;103362.13;;;-0.26;100.00
42105;BME280;61464;51.472;5.712;2023-01-25T03:33:38;103351.00;;;-0.22;100.00
42105;BME280;61464;51.472;5.712;2023-01-25T03:36:05;103360.47;;;-0.27;100.00
42105;BME280;61464;51.472;5.712;2023-01-25T03:38:31;103351.28;;;-0.40;100.00
42105;BME280;61464;51.472;5.712;2023-01-25T03:40:57;103356.47;;;-0.43;100.00
42105;BME280;61464;51.472;5.712;2023-01-25T03:43:23;103354.59;;;-0.33;100.00
42105;BME280;61464;51.472;5.712;2023-01-25T03:45:58;103352.94;;;-0.36;100.00
42105;BME280;61464;51.472;5.712;2023-01-25T03:48:24;103346.88;;;-0.29;100.00
42105;BME280;61464;51.472;5.712;2023-01-25T03:50:53;103345.16;;;-0.28;100.00
42105;BME280;61464;51.472;5.712;2023-01-25T03:53:25;103348.56;;;-0.29;100.00
42105;BME280;61464;51.472;5.712;2023-01-25T03:55:59;103342.72;;;-0.36;100.00
42105;BME280;61464;51.472;5.712;2023-01-25T03:58:26;103346.16;;;-0.38;100.00
42105;BME280;61464;51.472;5.712;2023-01-25T04:00:55;103349.72;;;-0.49;100.00
42105;BME280;61464;51.472;5.712;2023-01-25T04:03:22;103356.41;;;-0.42;100.00
42105;BME280;61464;51.472;5.712;2023-01-25T04:05:48;103349.66;;;-0.46;100.00
42105;BME280;61464;51.472;5.712;2023-01-25T04:08:14;103334.41;;;-0.49;100.00
42105;BME280;61464;51.472;5.712;2023-01-25T04:10:39;103342.94;;;-0.50;100.00
42105;BME280;61464;51.472;5.712;2023-01-25T04:13:05;103337.91;;;-0.56;100.00
42105;BME280;61464;51.472;5.712;2023-01-25T04:15:31;103334.44;;;-0.52;100.00
42105;BME280;61464;51.472;5.712;2023-01-25T04:17:57;103342.81;;;-0.41;100.00
42105;BME280;61464;51.472;5.712;2023-01-25T04:20:23;103341.16;;;-0.43;100.00
42105;BME280;61464;51.472;5.712;2023-01-25T04:22:49;103334.25;;;-0.38;100.00
42105;BME280;61464;51.472;5.712;2023-01-25T04:25:15;103331.66;;;-0.35;100.00
42105;BME280;61464;51.472;5.712;2023-01-25T04:27:41;103326.56;;;-0.36;100.00
42105;BME280;61464;51.472;5.712;2023-01-25T04:30:07;103335.19;;;-0.44;100.00
42105;BME280;61464;51.472;5.712;2023-01-25T04:32:36;103324.09;;;-0.41;100.00
42105;BME280;61464;51.472;5.712;2023-01-25T04:35:02;103327.56;;;-0.45;100.00
42105;BME280;61464;51.472;5.712;2023-01-25T04:37:28;103330.97;;;-0.46;100.00
42105;BME280;61464;51.472;5.712;2023-01-25T04:39:54;103335.25;;;-0.47;100.00
42105;BME280;61464;51.472;5.712;2023-01-25T04:42:20;103330.03;;;-0.39;100.00
42105;BME280;61464;51.472;5.712;2023-01-25T04:44:46;103324.19;;;-0.47;100.00
42105;BME280;61464;51.472;5.712;2023-01-25T04:47:11;103324.94;;;-0.41;100.00
42105;BME280;61464;51.472;5.712;2023-01-25T04:49:37;103319.81;;;-0.39;100.00
42105;BME280;61464;51.472;5.712;2023-01-25T04:52:03;103311.34;;;-0.43;100.00
42105;BME280;61464;51.472;5.712;2023-01-25T04:54:29;103312.28;;;-0.47;100.00
42105;BME280;61464;51.472;5.712;2023-01-25T04:56:55;103307.16;;;-0.45;100.00
42105;BME280;61464;51.472;5.712;2023-01-25T04:59:20;103308.81;;;-0.44;100.00
42105;BME280;61464;51.472;5.712;2023-01-25T05:01:46;103300.38;;;-0.48;100.00
42105;BME280;61464;51.472;5.712;2023-01-25T05:04:12;103301.25;;;-0.50;100.00
42105;BME280;61464;51.472;5.712;2023-01-25T05:06:38;103296.94;;;-0.45;100.00
42105;BME280;61464;51.472;5.712;2023-01-25T05:09:04;103296.09;;;-0.46;100.00
42105;BME280;61464;51.472;5.712;2023-01-25T05:11:30;103295.25;;;-0.46;100.00
42105;BME280;61464;51.472;5.712;2023-01-25T05:13:55;103298.69;;;-0.47;100.00
42105;BME280;61464;51.472;5.712;2023-01-25T05:16:21;103297.88;;;-0.51;100.00
42105;BME280;61464;51.472;5.712;2023-01-25T05:18:47;103294.53;;;-0.54;100.00
42105;BME280;61464;51.472;5.712;2023-01-25T05:21:13;103298.19;;;-0.72;100.00
42105;BME280;61464;51.472;5.712;2023-01-25T05:23:57;103297.28;;;-0.68;100.00
42105;BME280;61464;51.472;5.712;2023-01-25T05:26:23;103296.63;;;-0.83;100.00
42105;BME280;61464;51.472;5.712;2023-01-25T05:29:11;103298.38;;;-0.85;100.00
42105;BME280;61464;51.472;5.712;2023-01-25T05:31:36;103300.91;;;-0.85;100.00
42105;BME280;61464;51.472;5.712;2023-01-25T05:34:02;103306.00;;;-0.83;100.00
42105;BME280;61464;51.472;5.712;2023-01-25T05:36:28;103300.97;;;-0.86;100.00
42105;BME280;61464;51.472;5.712;2023-01-25T05:38:54;103295.88;;;-0.86;100.00
42105;BME280;61464;51.472;5.712;2023-01-25T05:41:19;103294.06;;;-0.79;100.00
42105;BME280;61464;51.472;5.712;2023-01-25T05:43:48;103297.50;;;-0.82;100.00
42105;BME280;61464;51.472;5.712;2023-01-25T05:46:14;103297.59;;;-0.88;100.00
42105;BME280;61464;51.472;5.712;2023-01-25T05:48:40;103294.13;;;-0.84;100.00
42105;BME280;61464;51.472;5.712;2023-01-25T05:51:06;103291.69;;;-0.90;100.00
42105;BME280;61464;51.472;5.712;2023-01-25T05:53:32;103292.53;;;-0.91;100.00
42105;BME280;61464;51.472;5.712;2023-01-25T05:56:06;103292.44;;;-0.87;100.00
42105;BME280;61464;51.472;5.712;2023-01-25T05:58:32;103284.94;;;-0.94;100.00
42105;BME280;61464;51.472;5.712;2023-01-25T06:01:03;103290.03;;;-0.94;100.00
42105;BME280;61464;51.472;5.712;2023-01-25T06:03:29;103287.41;;;-0.91;100.00
42105;BME280;61464;51.472;5.712;2023-01-25T06:05:57;103281.50;;;-0.93;100.00
42105;BME280;61464;51.472;5.712;2023-01-25T06:08:23;103289.13;;;-0.90;100.00
42105;BME280;61464;51.472;5.712;2023-01-25T06:10:49;103291.59;;;-0.86;100.00
42105;BME280;61464;51.472;5.712;2023-01-25T06:13:16;103283.94;;;-0.86;100.00
42105;BME280;61464;51.472;5.712;2023-01-25T06:15:42;103287.50;;;-0.96;100.00
42105;BME280;61464;51.472;5.712;2023-01-25T06:18:08;103278.19;;;-0.98;100.00
42105;BME280;61464;51.472;5.712;2023-01-25T06:20:33;103283.25;;;-0.97;100.00
42105;BME280;61464;51.472;5.712;2023-01-25T06:22:59;103282.41;;;-0.97;100.00
42105;BME280;61464;51.472;5.712;2023-01-25T06:25:25;103283.28;;;-0.98;100.00
42105;BME280;61464;51.472;5.712;2023-01-25T06:27:54;103276.47;;;-0.96;100.00
42105;BME280;61464;51.472;5.712;2023-01-25T06:30:20;103268.75;;;-0.93;100.00
42105;BME280;61464;51.472;5.712;2023-01-25T06:32:45;103282.25;;;-0.87;100.00
42105;BME280;61464;51.472;5.712;2023-01-25T06:35:11;103277.16;;;-0.87;100.00
42105;BME280;61464;51.472;5.712;2023-01-25T06:37:37;103278.78;;;-0.81;100.00
42105;BME280;61464;51.472;5.712;2023-01-25T06:40:03;103275.38;;;-0.80;100.00
42105;BME280;61464;51.472;5.712;2023-01-25T06:42:29;103272.75;;;-0.75;100.00
42105;BME280;61464;51.472;5.712;2023-01-25T06:44:55;103273.59;;;-0.76;100.00
42105;BME280;61464;51.472;5.712;2023-01-25T06:47:21;103273.69;;;-0.83;100.00
42105;BME280;61464;51.472;5.712;2023-01-25T06:49:46;103281.28;;;-0.78;100.00
42105;BME280;61464;51.472;5.712;2023-01-25T06:52:12;103276.13;;;-0.73;100.00
42105;BME280;61464;51.472;5.712;2023-01-25T06:54:38;103287.25;;;-0.81;100.00
42105;BME280;61464;51.472;5.712;2023-01-25T06:57:04;103278.84;;;-0.86;100.00
42105;BME280;61464;51.472;5.712;2023-01-25T06:59:30;103282.13;;;-0.77;100.00
42105;BME280;61464;51.472;5.712;2023-01-25T07:01:55;103276.22;;;-0.81;100.00
42105;BME280;61464;51.472;5.712;2023-01-25T07:04:21;103279.59;;;-0.77;100.00
42105;BME280;61464;51.472;5.712;2023-01-25T07:06:47;103274.59;;;-0.85;100.00
42105;BME280;61464;51.472;5.712;2023-01-25T07:09:13;103272.84;;;-0.83;100.00
42105;BME280;61464;51.472;5.712;2023-01-25T07:11:39;103276.22;;;-0.79;100.00
42105;BME280;61464;51.472;5.712;2023-01-25T07:14:05;103278.00;;;-0.86;100.00
42105;BME280;61464;51.472;5.712;2023-01-25T07:16:31;103277.97;;;-0.85;100.00
42105;BME280;61464;51.472;5.712;2023-01-25T07:19:03;103280.66;;;-0.92;100.00
42105;BME280;61464;51.472;5.712;2023-01-25T07:21:29;103273.81;;;-0.90;100.00
42105;BME280;61464;51.472;5.712;2023-01-25T07:23:59;103274.75;;;-0.96;100.00
42105;BME280;61464;51.472;5.712;2023-01-25T07:26:27;103269.72;;;-1.02;100.00
42105;BME280;61464;51.472;5.712;2023-01-25T07:28:53;103267.25;;;-1.07;100.00
42105;BME280;61464;51.472;5.712;2023-01-25T07:31:21;103278.28;;;-1.05;100.00
42105;BME280;61464;51.472;5.712;2023-01-25T07:33:48;103274.94;;;-1.10;100.00
42105;BME280;61464;51.472;5.712;2023-01-25T07:36:14;103258.81;;;-1.13;100.00
42105;BME280;61464;51.472;5.712;2023-01-25T07:38:40;103258.75;;;-1.07;100.00
42105;BME280;61464;51.472;5.712;2023-01-25T07:41:06;103263.81;;;-1.03;100.00
42105;BME280;61464;51.472;5.712;2023-01-25T07:43:32;103260.50;;;-1.11;100.00
42105;BME280;61464;51.472;5.712;2023-01-25T07:46:07;103254.59;;;-1.13;100.00
42105;BME280;61464;51.472;5.712;2023-01-25T07:48:35;103257.91;;;-1.06;100.00
42105;BME280;61464;51.472;5.712;2023-01-25T07:51:04;103247.69;;;-1.06;100.00
42105;BME280;61464;51.472;5.712;2023-01-25T07:53:41;103257.94;;;-1.09;100.00
42105;BME280;61464;51.472;5.712;2023-01-25T07:56:10;103252.97;;;-1.18;100.00
42105;BME280;61464;51.472;5.712;2023-01-25T07:58:36;103253.78;;;-1.15;100.00
42105;BME280;61464;51.472;5.712;2023-01-25T08:01:12;103259.56;;;-1.05;100.00
42105;BME280;61464;51.472;5.712;2023-01-25T08:03:38;103247.53;;;-0.95;100.00
42105;BME280;61464;51.472;5.712;2023-01-25T08:06:05;103254.19;;;-0.85;100.00
42105;BME280;61464;51.472;5.712;2023-01-25T08:08:33;103265.25;;;-0.86;100.00
42105;BME280;61464;51.472;5.712;2023-01-25T08:11:22;103259.38;;;-0.93;100.00
42105;BME280;61464;51.472;5.712;2023-01-25T08:13:49;103264.38;;;-0.84;100.00
42105;BME280;61464;51.472;5.712;2023-01-25T08:16:18;103249.06;;;-0.82;100.00
42105;BME280;61464;51.472;5.712;2023-01-25T08:18:52;103251.66;;;-0.87;100.00
42105;BME280;61464;51.472;5.712;2023-01-25T08:21:20;103249.06;;;-0.84;100.00
42105;BME280;61464;51.472;5.712;2023-01-25T08:23:46;103255.91;;;-0.86;100.00
42105;BME280;61464;51.472;5.712;2023-01-25T08:26:14;103242.22;;;-0.80;100.00
42105;BME280;61464;51.472;5.712;2023-01-25T08:28:41;103249.09;;;-0.85;100.00
42105;BME280;61464;51.472;5.712;2023-01-25T08:31:17;103250.66;;;-0.76;100.00
42105;BME280;61464;51.472;5.712;2023-01-25T08:33:44;103254.91;;;-0.75;100.00
42105;BME280;61464;51.472;5.712;2023-01-25T08:36:12;103247.25;;;-0.75;100.00
42105;BME280;61464;51.472;5.712;2023-01-25T08:38:39;103253.09;;;-0.69;100.00
42105;BME280;61464;51.472;5.712;2023-01-25T08:41:17;103251.41;;;-0.70;100.00
42105;BME280;61464;51.472;5.712;2023-01-25T08:43:45;103233.72;;;-0.81;100.00
42105;BME280;61464;51.472;5.712;2023-01-25T08:46:12;103229.47;;;-0.82;100.00
42105;BME280;61464;51.472;5.712;2023-01-25T08:48:39;103238.81;;;-0.81;100.00
42105;BME280;61464;51.472;5.712;2023-01-25T08:51:08;103230.34;;;-0.83;100.00
42105;BME280;61464;51.472;5.712;2023-01-25T08:53:36;103237.88;;;-0.75;100.00
42105;BME280;61464;51.472;5.712;2023-01-25T08:56:07;103241.31;;;-0.76;100.00
42105;BME280;61464;51.472;5.712;2023-01-25T08:58:36;103249.72;;;-0.71;100.00
42105;BME280;61464;51.472;5.712;2023-01-25T09:01:05;103237.84;;;-0.73;100.00
42105;BME280;61464;51.472;5.712;2023-01-25T09:03:35;103236.13;;;-0.73;100.00
42105;BME280;61464;51.472;5.712;2023-01-25T09:06:01;103231.94;;;-0.74;100.00
42105;BME280;61464;51.472;5.712;2023-01-25T09:08:27;103224.28;;;-0.74;100.00
42105;BME280;61464;51.472;5.712;2023-01-25T09:10:52;103230.13;;;-0.69;100.00
42105;BME280;61464;51.472;5.712;2023-01-25T09:13:18;103225.19;;;-0.78;100.00
42105;BME280;61464;51.472;5.712;2023-01-25T09:15:44;103221.84;;;-0.83;100.00
42105;BME280;61464;51.472;5.712;2023-01-25T09:18:10;103217.50;;;-0.76;100.00
42105;BME280;61464;51.472;5.712;2023-01-25T09:20:39;103217.63;;;-0.84;100.00
42105;BME280;61464;51.472;5.712;2023-01-25T09:23:05;103209.16;;;-0.86;100.00
42105;BME280;61464;51.472;5.712;2023-01-25T09:25:31;103210.91;;;-0.88;100.00
42105;BME280;61464;51.472;5.712;2023-01-25T09:27:56;103210.75;;;-0.81;100.00
42105;BME280;61464;51.472;5.712;2023-01-25T09:30:22;103212.56;;;-0.87;100.00
42105;BME280;61464;51.472;5.712;2023-01-25T09:32:49;103208.06;;;-0.71;100.00
42105;BME280;61464;51.472;5.712;2023-01-25T09:35:15;103205.41;;;-0.65;100.00
42105;BME280;61464;51.472;5.712;2023-01-25T09:37:41;103218.91;;;-0.58;100.00
42105;BME280;61464;51.472;5.712;2023-01-25T09:40:22;103217.91;;;-0.50;100.00
42105;BME280;61464;51.472;5.712;2023-01-25T09:43:22;103212.97;;;-0.59;100.00
42105;BME280;61464;51.472;5.712;2023-01-25T09:45:52;103217.88;;;-0.48;100.00
42105;BME280;61464;51.472;5.712;2023-01-25T09:48:37;103216.34;;;-0.58;100.00
42105;BME280;61464;51.472;5.712;2023-01-25T09:51:26;103220.53;;;-0.53;100.00
42105;BME280;61464;51.472;5.712;2023-01-25T09:53:54;103221.56;;;-0.65;100.00
42105;BME280;61464;51.472;5.712;2023-01-25T09:58:55;103208.97;;;-0.74;100.00
42105;BME280;61464;51.472;5.712;2023-01-25T10:01:37;103218.19;;;-0.67;100.00
42105;BME280;61464;51.472;5.712;2023-01-25T10:06:57;103212.78;;;-0.48;100.00
42105;BME280;61464;51.472;5.712;2023-01-25T10:09:40;103210.81;;;-0.32;100.00
42105;BME280;61464;51.472;5.712;2023-01-25T10:12:24;103199.13;;;-0.46;100.00
42105;BME280;61464;51.472;5.712;2023-01-25T10:14:51;103199.91;;;-0.42;100.00
42105;BME280;61464;51.472;5.712;2023-01-25T10:22:39;103201.81;;;-0.53;100.00
42105;BME280;61464;51.472;5.712;2023-01-25T10:25:37;103202.50;;;-0.44;100.00
42105;BME280;61464;51.472;5.712;2023-01-25T10:31:25;103185.50;;;-0.45;100.00
42105;BME280;61464;51.472;5.712;2023-01-25T10:33:55;103179.47;;;-0.39;100.00
42105;BME280;61464;51.472;5.712;2023-01-25T10:36:28;103187.94;;;-0.37;100.00
42105;BME280;61464;51.472;5.712;2023-01-25T10:38:54;103181.94;;;-0.36;100.00
42105;BME280;61464;51.472;5.712;2023-01-25T10:41:40;103172.03;;;-0.51;100.00
42105;BME280;61464;51.472;5.712;2023-01-25T10:44:11;103176.00;;;-0.36;100.00
42105;BME280;61464;51.472;5.712;2023-01-25T10:49:47;103164.88;;;-0.32;100.00
42105;BME280;61464;51.472;5.712;2023-01-25T10:52:24;103150.69;;;-0.47;100.00
42105;BME280;61464;51.472;5.712;2023-01-25T10:55:20;103138.75;;;-0.47;100.00
42105;BME280;61464;51.472;5.712;2023-01-25T10:57:53;103135.19;;;-0.38;100.00
42105;BME280;61464;51.472;5.712;2023-01-25T11:00:40;103129.06;;;-0.29;100.00
42105;BME280;61464;51.472;5.712;2023-01-25T11:03:19;103122.31;;;-0.32;100.00
42105;BME280;61464;51.472;5.712;2023-01-25T11:05:54;103118.81;;;-0.26;100.00
42105;BME280;61464;51.472;5.712;2023-01-25T11:08:24;103122.75;;;-0.11;100.00
42105;BME280;61464;51.472;5.712;2023-01-25T11:10:52;103110.38;;;-0.30;100.00
42105;BME280;61464;51.472;5.712;2023-01-25T11:13:31;103107.69;;;-0.24;100.00
42105;BME280;61464;51.472;5.712;2023-01-25T11:18:31;103102.00;;;-0.36;100.00
42105;BME280;61464;51.472;5.712;2023-01-25T11:21:13;103091.88;;;-0.41;100.00
42105;BME280;61464;51.472;5.712;2023-01-25T11:23:41;103091.78;;;-0.36;100.00
42105;BME280;61464;51.472;5.712;2023-01-25T11:26:15;103086.81;;;-0.43;100.00
42105;BME280;61464;51.472;5.712;2023-01-25T11:28:43;103082.28;;;-0.30;100.00
42105;BME280;61464;51.472;5.712;2023-01-25T11:31:16;103076.41;;;-0.33;100.00
42105;BME280;61464;51.472;5.712;2023-01-25T11:33:44;103068.94;;;-0.43;100.00
42105;BME280;61464;51.472;5.712;2023-01-25T11:40:08;103053.94;;;-0.16;100.00
42105;BME280;61464;51.472;5.712;2023-01-25T11:42:58;103045.63;;;-0.26;100.00
42105;BME280;61464;51.472;5.712;2023-01-25T11:46:04;103033.78;;;-0.28;100.00
42105;BME280;61464;51.472;5.712;2023-01-25T11:51:28;103021.59;;;-0.15;100.00
42105;BME280;61464;51.472;5.712;2023-01-25T12:06:34;102996.13;;;-0.18;100.00
42105;BME280;61464;51.472;5.712;2023-01-25T12:12:04;102978.97;;;-0.12;100.00
42105;BME280;61464;51.472;5.712;2023-01-25T12:14:45;102971.94;;;-0.02;100.00
42105;BME280;61464;51.472;5.712;2023-01-25T12:25:56;102935.09;;;-0.29;100.00
42105;BME280;61464;51.472;5.712;2023-01-25T12:28:47;102929.31;;;-0.36;100.00
42105;BME280;61464;51.472;5.712;2023-01-25T12:31:25;102928.34;;;-0.32;100.00
42105;BME280;61464;51.472;5.712;2023-01-25T12:33:59;102918.44;;;-0.46;100.00
42105;BME280;61464;51.472;5.712;2023-01-25T12:36:46;102897.75;;;-0.33;100.00
42105;BME280;61464;51.472;5.712;2023-01-25T12:39:18;102900.13;;;-0.24;100.00
42105;BME280;61464;51.472;5.712;2023-01-25T12:41:50;102898.69;;;-0.36;100.00
42105;BME280;61464;51.472;5.712;2023-01-25T12:44:23;102897.69;;;-0.29;100.00
42105;BME280;61464;51.472;5.712;2023-01-25T12:47:27;102898.78;;;-0.41;100.00
42105;BME280;61464;51.472;5.712;2023-01-25T12:50:39;102892.75;;;-0.36;100.00
42105;BME280;61464;51.472;5.712;2023-01-25T12:53:26;102888.28;;;-0.27;100.00
42105;BME280;61464;51.472;5.712;2023-01-25T12:55:55;102879.94;;;-0.35;100.00
42105;BME280;61464;51.472;5.712;2023-01-25T12:58:48;102871.28;;;-0.29;100.00
42105;BME280;61464;51.472;5.712;2023-01-25T13:01:51;102864.25;;;-0.19;100.00
42105;BME280;61464;51.472;5.712;2023-01-25T13:07:38;102854.09;;;-0.21;100.00
42105;BME280;61464;51.472;5.712;2023-01-25T13:10:19;102851.81;;;-0.33;100.00
42105;BME280;61464;51.472;5.712;2023-01-25T13:12:58;102851.09;;;-0.38;100.00
42105;BME280;61464;51.472;5.712;2023-01-25T13:15:41;102843.31;;;-0.32;100.00
42105;BME280;61464;51.472;5.712;2023-01-25T13:21:00;102837.81;;;-0.51;100.00
42105;BME280;61464;51.472;5.712;2023-01-25T13:23:40;102835.19;;;-0.50;100.00
42105;BME280;61464;51.472;5.712;2023-01-25T13:28:49;102831.66;;;-0.44;100.00
42105;BME280;61464;51.472;5.712;2023-01-25T13:34:03;102825.00;;;-0.50;100.00
42105;BME280;61464;51.472;5.712;2023-01-25T13:41:58;102824.69;;;-0.73;100.00
42105;BME280;61464;51.472;5.712;2023-01-25T13:44:28;102810.47;;;-0.84;100.00
42105;BME280;61464;51.472;5.712;2023-01-25T13:46:56;102806.28;;;-0.86;100.00
42105;BME280;61464;51.472;5.712;2023-01-25T13:49:50;102810.59;;;-0.90;100.00
42105;BME280;61464;51.472;5.712;2023-01-25T13:52:19;102807.69;;;-0.74;100.00
42105;BME280;61464;51.472;5.712;2023-01-25T13:54:48;102811.03;;;-0.71;100.00
42105;BME280;61464;51.472;5.712;2023-01-25T13:57:20;102803.75;;;-0.88;100.00
42105;BME280;61464;51.472;5.712;2023-01-25T13:59:47;102799.97;;;-0.70;100.00
42105;BME280;61464;51.472;5.712;2023-01-25T14:02:22;102791.78;;;-0.84;100.00
42105;BME280;61464;51.472;5.712;2023-01-25T14:04:50;102783.28;;;-0.85;100.00
42105;BME280;61464;51.472;5.712;2023-01-25T14:07:23;102780.81;;;-0.88;100.00
42105;BME280;61464;51.472;5.712;2023-01-25T14:09:50;102777.47;;;-0.90;100.00
42105;BME280;61464;51.472;5.712;2023-01-25T14:12:36;102778.97;;;-0.81;100.00
42105;BME280;61464;51.472;5.712;2023-01-25T14:15:31;102776.63;;;-0.90;100.00